55.7°F
Current conditions from King Hill
Updated every 5 minutes
 
  Thursday July 31, 2014

Station Historical Data
Daily Summary for March 12, 2012 Units:  Both    English   Metric
« Previous Day
Next Day »
Daily Weekly Monthly Yearly Custom
  High: Low: Average:
Temperature: 61.1 °F /  16.2 °C 38.9 °F /  3.8 °C 49.5 °F /  9.7 °C
Dew Point: 39.1 °F /  3.9 °C 26.8 °F /  -2.9 °C 32 °F /  0 °C
Humidity: 65% 36% 51%
Wind Speed: 7.0mph /  11.3km/h - 2.8mph /  4.5km/h
Wind Gust: 16.0mph /  25.7km/h - -
Wind- - SW
Pressure: 30.22 in /  1023.2 hPa 29.99 in /  1015.5 hPa -
Precipitation: 0.01 in /  0.3 mm    
Historical Graphs
 
 
Tabular Data for March 12, 2012
Time Temperature Dew Point Pressure Wind Wind Speed Wind Gust Humidity Daily Rainfall
00:00 48.0 °F /  8.9 °C 27.7 °F /  -2.4 °C 30.18in /  1021.9hPa WSW 7.0mph /  11.3km/h 13.0mph /  20.9km/h 45% 0.00in /  0mm
00:05 48.5 °F /  9.2 °C 27.6 °F /  -2.4 °C 30.18in /  1021.9hPa WSW 7.0mph /  11.3km/h 16.0mph /  25.7km/h 44% 0.00in /  0mm
00:10 48.2 °F /  9 °C 27.3 °F /  -2.6 °C 30.18in /  1021.9hPa WSW 5.0mph /  8km/h 16.0mph /  25.7km/h 44% 0.00in /  0mm
00:15 47.9 °F /  8.8 °C 27.6 °F /  -2.4 °C 30.18in /  1021.9hPa WSW 4.0mph /  6.4km/h 10.0mph /  16.1km/h 45% 0.00in /  0mm
00:20 47.8 °F /  8.8 °C 27.5 °F /  -2.5 °C 30.18in /  1021.9hPa WSW 4.0mph /  6.4km/h 12.0mph /  19.3km/h 45% 0.00in /  0mm
00:25 47.8 °F /  8.8 °C 27.5 °F /  -2.5 °C 30.18in /  1021.9hPa WSW 6.0mph /  9.7km/h 12.0mph /  19.3km/h 45% 0.00in /  0mm
00:30 47.3 °F /  8.5 °C 27.6 °F /  -2.4 °C 30.18in /  1021.9hPa WSW 6.0mph /  9.7km/h 11.0mph /  17.7km/h 46% 0.00in /  0mm
00:35 47.2 °F /  8.4 °C 27.5 °F /  -2.5 °C 30.18in /  1021.9hPa WSW 4.0mph /  6.4km/h 11.0mph /  17.7km/h 46% 0.00in /  0mm
00:40 46.9 °F /  8.3 °C 27.2 °F /  -2.7 °C 30.18in /  1021.9hPa WSW 5.0mph /  8km/h 10.0mph /  16.1km/h 46% 0.00in /  0mm
00:50 46.6 °F /  8.1 °C 27.4 °F /  -2.6 °C 30.18in /  1021.9hPa SW 3.0mph /  4.8km/h 9.0mph /  14.5km/h 47% 0.00in /  0mm
01:00 46.3 °F /  7.9 °C 27.2 °F /  -2.7 °C 30.18in /  1021.9hPa WSW 4.0mph /  6.4km/h 8.0mph /  12.9km/h 47% 0.00in /  0mm
01:05 46.2 °F /  7.9 °C 27.1 °F /  -2.7 °C 30.18in /  1021.9hPa SW 4.0mph /  6.4km/h 8.0mph /  12.9km/h 47% 0.00in /  0mm
01:10 45.8 °F /  7.7 °C 27.2 °F /  -2.7 °C 30.18in /  1021.9hPa WSW 3.0mph /  4.8km/h 9.0mph /  14.5km/h 48% 0.00in /  0mm
01:15 45.5 °F /  7.5 °C 26.9 °F /  -2.8 °C 30.18in /  1021.9hPa SW 3.0mph /  4.8km/h 9.0mph /  14.5km/h 48% 0.00in /  0mm
01:20 45.2 °F /  7.3 °C 27.2 °F /  -2.7 °C 30.18in /  1021.9hPa WSW 3.0mph /  4.8km/h 7.0mph /  11.3km/h 49% 0.00in /  0mm
01:30 44.8 °F /  7.1 °C 26.8 °F /  -2.9 °C 30.18in /  1021.9hPa SSW 3.0mph /  4.8km/h 6.0mph /  9.7km/h 49% 0.00in /  0mm
01:35 44.5 °F /  6.9 °C 27.0 °F /  -2.8 °C 30.18in /  1021.9hPa SW 3.0mph /  4.8km/h 5.0mph /  8km/h 50% 0.00in /  0mm
01:45 44.2 °F /  6.8 °C 27.2 °F /  -2.7 °C 30.18in /  1021.9hPa WSW 3.0mph /  4.8km/h 7.0mph /  11.3km/h 51% 0.00in /  0mm
01:50 44.5 °F /  6.9 °C 27.0 °F /  -2.8 °C 30.18in /  1021.9hPa SW 3.0mph /  4.8km/h 7.0mph /  11.3km/h 50% 0.00in /  0mm
01:55 44.5 °F /  6.9 °C 27.0 °F /  -2.8 °C 30.18in /  1021.9hPa SW 4.0mph /  6.4km/h 8.0mph /  12.9km/h 50% 0.00in /  0mm
02:00 44.9 °F /  7.2 °C 27.4 °F /  -2.6 °C 30.18in /  1021.9hPa SSW 5.0mph /  8km/h 9.0mph /  14.5km/h 50% 0.00in /  0mm
02:05 45.0 °F /  7.2 °C 27.5 °F /  -2.5 °C 30.18in /  1021.9hPa SW 4.0mph /  6.4km/h 9.0mph /  14.5km/h 50% 0.00in /  0mm
02:10 44.9 °F /  7.2 °C 27.4 °F /  -2.6 °C 30.18in /  1021.9hPa SW 4.0mph /  6.4km/h 7.0mph /  11.3km/h 50% 0.00in /  0mm
02:15 44.9 °F /  7.2 °C 27.4 °F /  -2.6 °C 30.18in /  1021.9hPa SW 4.0mph /  6.4km/h 7.0mph /  11.3km/h 50% 0.00in /  0mm
02:20 44.8 °F /  7.1 °C 27.3 °F /  -2.6 °C 30.18in /  1021.9hPa SW 3.0mph /  4.8km/h 7.0mph /  11.3km/h 50% 0.00in /  0mm
02:25 44.7 °F /  7.1 °C 27.2 °F /  -2.7 °C 30.18in /  1021.9hPa SW 3.0mph /  4.8km/h 7.0mph /  11.3km/h 50% 0.00in /  0mm
02:30 44.7 °F /  7.1 °C 27.2 °F /  -2.7 °C 30.18in /  1021.9hPa SW 4.0mph /  6.4km/h 8.0mph /  12.9km/h 50% 0.00in /  0mm
02:40 44.9 °F /  7.2 °C 27.4 °F /  -2.6 °C 30.17in /  1021.6hPa WSW 3.0mph /  4.8km/h 6.0mph /  9.7km/h 50% 0.00in /  0mm
02:45 44.7 °F /  7.1 °C 27.2 °F /  -2.7 °C 30.17in /  1021.6hPa WSW 4.0mph /  6.4km/h 7.0mph /  11.3km/h 50% 0.00in /  0mm
02:50 44.9 °F /  7.2 °C 27.4 °F /  -2.6 °C 30.17in /  1021.6hPa SW 4.0mph /  6.4km/h 7.0mph /  11.3km/h 50% 0.00in /  0mm
02:55 44.6 °F /  7 °C 27.6 °F /  -2.4 °C 30.17in /  1021.6hPa WSW 4.0mph /  6.4km/h 8.0mph /  12.9km/h 51% 0.00in /  0mm
03:00 44.5 °F /  6.9 °C 27.5 °F /  -2.5 °C 30.17in /  1021.6hPa SW 4.0mph /  6.4km/h 8.0mph /  12.9km/h 51% 0.00in /  0mm
03:05 44.7 °F /  7.1 °C 27.2 °F /  -2.7 °C 30.17in /  1021.6hPa SW 4.0mph /  6.4km/h 8.0mph /  12.9km/h 50% 0.00in /  0mm
03:10 44.6 °F /  7 °C 27.6 °F /  -2.4 °C 30.17in /  1021.6hPa WSW 3.0mph /  4.8km/h 8.0mph /  12.9km/h 51% 0.00in /  0mm
03:15 44.2 °F /  6.8 °C 27.2 °F /  -2.7 °C 30.17in /  1021.6hPa WSW 3.0mph /  4.8km/h 6.0mph /  9.7km/h 51% 0.00in /  0mm
03:20 44.0 °F /  6.7 °C 27.0 °F /  -2.8 °C 30.17in /  1021.6hPa SW 3.0mph /  4.8km/h 6.0mph /  9.7km/h 51% 0.00in /  0mm
03:25 43.6 °F /  6.4 °C 27.1 °F /  -2.7 °C 30.17in /  1021.6hPa SW 3.0mph /  4.8km/h 6.0mph /  9.7km/h 52% 0.00in /  0mm
03:30 43.4 °F /  6.3 °C 27.4 °F /  -2.6 °C 30.17in /  1021.6hPa SW 3.0mph /  4.8km/h 5.0mph /  8km/h 53% 0.00in /  0mm
03:35 43.3 °F /  6.3 °C 27.3 °F /  -2.6 °C 30.17in /  1021.6hPa SW 3.0mph /  4.8km/h 5.0mph /  8km/h 53% 0.00in /  0mm
03:40 43.3 °F /  6.3 °C 27.3 °F /  -2.6 °C 30.16in /  1021.2hPa SSW 3.0mph /  4.8km/h 6.0mph /  9.7km/h 53% 0.00in /  0mm
03:50 43.4 °F /  6.3 °C 27.9 °F /  -2.3 °C 30.17in /  1021.6hPa SSW 3.0mph /  4.8km/h 5.0mph /  8km/h 54% 0.00in /  0mm
03:55 43.0 °F /  6.1 °C 27.5 °F /  -2.5 °C 30.17in /  1021.6hPa SSW 3.0mph /  4.8km/h 6.0mph /  9.7km/h 54% 0.00in /  0mm
04:00 42.6 °F /  5.9 °C 27.6 °F /  -2.4 °C 30.17in /  1021.6hPa SSW 3.0mph /  4.8km/h 6.0mph /  9.7km/h 55% 0.00in /  0mm
04:05 42.6 °F /  5.9 °C 27.6 °F /  -2.4 °C 30.17in /  1021.6hPa SSW 3.0mph /  4.8km/h 5.0mph /  8km/h 55% 0.00in /  0mm
04:10 42.7 °F /  5.9 °C 27.7 °F /  -2.4 °C 30.17in /  1021.6hPa SSW 2.0mph /  3.2km/h 5.0mph /  8km/h 55% 0.00in /  0mm
04:20 42.9 °F /  6.1 °C 27.8 °F /  -2.3 °C 30.17in /  1021.6hPa SSW 3.0mph /  4.8km/h 4.0mph /  6.4km/h 55% 0.00in /  0mm
04:30 43.2 °F /  6.2 °C 28.1 °F /  -2.2 °C 30.17in /  1021.6hPa SSW 3.0mph /  4.8km/h 5.0mph /  8km/h 55% 0.00in /  0mm
04:35 42.9 °F /  6.1 °C 27.8 °F /  -2.3 °C 30.17in /  1021.6hPa SSW 3.0mph /  4.8km/h 4.0mph /  6.4km/h 55% 0.00in /  0mm
04:40 43.0 °F /  6.1 °C 27.9 °F /  -2.3 °C 30.17in /  1021.6hPa SSW 3.0mph /  4.8km/h 6.0mph /  9.7km/h 55% 0.00in /  0mm
04:45 43.3 °F /  6.3 °C 28.2 °F /  -2.1 °C 30.17in /  1021.6hPa SSW 3.0mph /  4.8km/h 6.0mph /  9.7km/h 55% 0.00in /  0mm
04:50 43.3 °F /  6.3 °C 28.2 °F /  -2.1 °C 30.17in /  1021.6hPa SSW 3.0mph /  4.8km/h 5.0mph /  8km/h 55% 0.00in /  0mm
04:55 43.3 °F /  6.3 °C 28.2 °F /  -2.1 °C 30.17in /  1021.6hPa SSW 3.0mph /  4.8km/h 5.0mph /  8km/h 55% 0.00in /  0mm
05:00 43.0 °F /  6.1 °C 28.4 °F /  -2 °C 30.17in /  1021.6hPa SSW 3.0mph /  4.8km/h 4.0mph /  6.4km/h 56% 0.00in /  0mm
05:10 43.7 °F /  6.5 °C 28.6 °F /  -1.9 °C 30.17in /  1021.6hPa SSW 3.0mph /  4.8km/h 5.0mph /  8km/h 55% 0.00in /  0mm
05:15 43.7 °F /  6.5 °C 28.6 °F /  -1.9 °C 30.17in /  1021.6hPa Calm   4.0mph /  6.4km/h 55% 0.00in /  0mm
05:20 43.0 °F /  6.1 °C 28.4 °F /  -2 °C 30.17in /  1021.6hPa Calm   3.0mph /  4.8km/h 56% 0.00in /  0mm
05:25 42.8 °F /  6 °C 28.6 °F /  -1.9 °C 30.17in /  1021.6hPa SSW 1.0mph /  1.6km/h 3.0mph /  4.8km/h 57% 0.00in /  0mm
05:30 43.1 °F /  6.2 °C 28.9 °F /  -1.7 °C 30.17in /  1021.6hPa SSW 1.0mph /  1.6km/h 3.0mph /  4.8km/h 57% 0.00in /  0mm
05:40 42.2 °F /  5.7 °C 28.5 °F /  -1.9 °C 30.17in /  1021.6hPa Calm   1.0mph /  1.6km/h 58% 0.00in /  0mm
05:50 41.5 °F /  5.3 °C 29.1 °F /  -1.6 °C 30.17in /  1021.6hPa Calm   2.0mph /  3.2km/h 61% 0.00in /  0mm
05:55 40.8 °F /  4.9 °C 29.2 °F /  -1.6 °C 30.17in /  1021.6hPa Calm   2.0mph /  3.2km/h 63% 0.00in /  0mm
06:00 39.8 °F /  4.3 °C 27.8 °F /  -2.3 °C 30.17in /  1021.6hPa Calm     62% 0.00in /  0mm
06:05 38.9 °F /  3.8 °C 28.1 °F /  -2.2 °C 30.18in /  1021.9hPa Calm     65% 0.00in /  0mm
06:10 40.0 °F /  4.4 °C 28.8 °F /  -1.8 °C 30.18in /  1021.9hPa SSW 2.0mph /  3.2km/h 4.0mph /  6.4km/h 64% 0.00in /  0mm
06:15 39.8 °F /  4.3 °C 28.6 °F /  -1.9 °C 30.18in /  1021.9hPa SSW 2.0mph /  3.2km/h 4.0mph /  6.4km/h 64% 0.00in /  0mm
06:20 41.1 °F /  5.1 °C 29.1 °F /  -1.6 °C 30.18in /  1021.9hPa SSW 1.0mph /  1.6km/h 4.0mph /  6.4km/h 62% 0.00in /  0mm
06:25 41.8 °F /  5.4 °C 28.9 °F /  -1.7 °C 30.18in /  1021.9hPa Calm   4.0mph /  6.4km/h 60% 0.00in /  0mm
06:30 42.3 °F /  5.7 °C 29.0 °F /  -1.7 °C 30.18in /  1021.9hPa SSW 1.0mph /  1.6km/h 4.0mph /  6.4km/h 59% 0.00in /  0mm
06:40 41.1 °F /  5.1 °C 28.7 °F /  -1.8 °C 30.18in /  1021.9hPa SSW 1.0mph /  1.6km/h 5.0mph /  8km/h 61% 0.00in /  0mm
06:50 41.9 °F /  5.5 °C 29.0 °F /  -1.7 °C 30.18in /  1021.9hPa SSW 2.0mph /  3.2km/h 3.0mph /  4.8km/h 60% 0.00in /  0mm
06:55 41.7 °F /  5.4 °C 28.8 °F /  -1.8 °C 30.18in /  1021.9hPa SSW 3.0mph /  4.8km/h 5.0mph /  8km/h 60% 0.00in /  0mm
07:00 41.4 °F /  5.2 °C 29.0 °F /  -1.7 °C 30.18in /  1021.9hPa SSW 3.0mph /  4.8km/h 5.0mph /  8km/h 61% 0.00in /  0mm
07:05 41.1 °F /  5.1 °C 28.7 °F /  -1.8 °C 30.19in /  1022.2hPa SSW 3.0mph /  4.8km/h 5.0mph /  8km/h 61% 0.00in /  0mm
07:10 40.8 °F /  4.9 °C 28.4 °F /  -2 °C 30.19in /  1022.2hPa SSW 3.0mph /  4.8km/h 6.0mph /  9.7km/h 61% 0.00in /  0mm
07:15 41.1 °F /  5.1 °C 28.3 °F /  -2.1 °C 30.19in /  1022.2hPa SSW 3.0mph /  4.8km/h 6.0mph /  9.7km/h 60% 0.00in /  0mm
07:20 41.3 °F /  5.2 °C 28.1 °F /  -2.2 °C 30.19in /  1022.2hPa SSW 3.0mph /  4.8km/h 6.0mph /  9.7km/h 59% 0.00in /  0mm
07:25 41.8 °F /  5.4 °C 28.1 °F /  -2.2 °C 30.20in /  1022.6hPa SSW 3.0mph /  4.8km/h 6.0mph /  9.7km/h 58% 0.00in /  0mm
07:30 42.4 °F /  5.8 °C 28.2 °F /  -2.1 °C 30.20in /  1022.6hPa SSW 3.0mph /  4.8km/h 6.0mph /  9.7km/h 57% 0.00in /  0mm
07:40 41.8 °F /  5.4 °C 28.1 °F /  -2.2 °C 30.20in /  1022.6hPa SSW 3.0mph /  4.8km/h 5.0mph /  8km/h 58% 0.00in /  0mm
07:45 41.1 °F /  5.1 °C 27.9 °F /  -2.3 °C 30.20in /  1022.6hPa Calm   5.0mph /  8km/h 59% 0.00in /  0mm
07:50 40.3 °F /  4.6 °C 27.5 °F /  -2.5 °C 30.20in /  1022.6hPa SSW 3.0mph /  4.8km/h 4.0mph /  6.4km/h 60% 0.00in /  0mm
08:00 40.3 °F /  4.6 °C 27.9 °F /  -2.3 °C 30.21in /  1022.9hPa SSW 1.0mph /  1.6km/h 5.0mph /  8km/h 61% 0.00in /  0mm
08:05 40.3 °F /  4.6 °C 27.9 °F /  -2.3 °C 30.21in /  1022.9hPa SSW 4.0mph /  6.4km/h 5.0mph /  8km/h 61% 0.00in /  0mm
08:10 41.0 °F /  5 °C 28.2 °F /  -2.1 °C 30.21in /  1022.9hPa SSW 3.0mph /  4.8km/h 5.0mph /  8km/h 60% 0.00in /  0mm
08:20 41.8 °F /  5.4 °C 28.5 °F /  -1.9 °C 30.21in /  1022.9hPa SSW 1.0mph /  1.6km/h 3.0mph /  4.8km/h 59% 0.00in /  0mm
08:25 42.1 °F /  5.6 °C 28.4 °F /  -2 °C 30.21in /  1022.9hPa SSW 1.0mph /  1.6km/h 4.0mph /  6.4km/h 58% 0.00in /  0mm
08:30 42.8 °F /  6 °C 28.6 °F /  -1.9 °C 30.21in /  1022.9hPa SSW 2.0mph /  3.2km/h 4.0mph /  6.4km/h 57% 0.00in /  0mm
08:35 43.6 °F /  6.4 °C 28.9 °F /  -1.7 °C 30.22in /  1023.2hPa Calm   6.0mph /  9.7km/h 56% 0.00in /  0mm
08:40 44.1 °F /  6.7 °C 29.4 °F /  -1.4 °C 30.22in /  1023.2hPa SW 1.0mph /  1.6km/h 6.0mph /  9.7km/h 56% 0.00in /  0mm
08:50 45.0 °F /  7.2 °C 29.4 °F /  -1.4 °C 30.22in /  1023.2hPa Calm   5.0mph /  8km/h 54% 0.00in /  0mm
08:55 45.6 °F /  7.6 °C 29.9 °F /  -1.2 °C 30.22in /  1023.2hPa Calm   5.0mph /  8km/h 54% 0.00in /  0mm
09:00 46.0 °F /  7.8 °C 30.3 °F /  -0.9 °C 30.22in /  1023.2hPa Calm   2.0mph /  3.2km/h 54% 0.00in /  0mm
09:10 46.0 °F /  7.8 °C 30.7 °F /  -0.7 °C 30.22in /  1023.2hPa Calm   1.0mph /  1.6km/h 55% 0.00in /  0mm
09:15 46.2 °F /  7.9 °C 30.5 °F /  -0.8 °C 30.22in /  1023.2hPa Calm   1.0mph /  1.6km/h 54% 0.00in /  0mm
09:20 46.7 °F /  8.2 °C 30.5 °F /  -0.8 °C 30.22in /  1023.2hPa Calm   2.0mph /  3.2km/h 53% 0.00in /  0mm
09:25 47.4 °F /  8.6 °C 31.1 °F /  -0.5 °C 30.22in /  1023.2hPa Calm   2.0mph /  3.2km/h 53% 0.00in /  0mm
09:35 48.6 °F /  9.2 °C 32.2 °F /  0.1 °C 30.22in /  1023.2hPa Calm   1.0mph /  1.6km/h 53% 0.00in /  0mm
09:40 49.8 °F /  9.9 °C 31.4 °F /  -0.3 °C 30.22in /  1023.2hPa Calm   2.0mph /  3.2km/h 49% 0.00in /  0mm
09:45 51.0 °F /  10.6 °C 31.5 °F /  -0.3 °C 30.22in /  1023.2hPa SW 1.0mph /  1.6km/h 3.0mph /  4.8km/h 47% 0.00in /  0mm
09:55 51.8 °F /  11 °C 32.2 °F /  0.1 °C 30.22in /  1023.2hPa NW 2.0mph /  3.2km/h 5.0mph /  8km/h 47% 0.00in /  0mm
10:00 51.8 °F /  11 °C 32.2 °F /  0.1 °C 30.22in /  1023.2hPa NW 2.0mph /  3.2km/h 5.0mph /  8km/h 47% 0.00in /  0mm
10:05 51.8 °F /  11 °C 32.7 °F /  0.4 °C 30.22in /  1023.2hPa West 1.0mph /  1.6km/h 6.0mph /  9.7km/h 48% 0.00in /  0mm
10:10 51.8 °F /  11 °C 31.7 °F /  -0.2 °C 30.22in /  1023.2hPa NW 3.0mph /  4.8km/h 6.0mph /  9.7km/h 46% 0.00in /  0mm
10:15 51.7 °F /  10.9 °C 31.6 °F /  -0.2 °C 30.22in /  1023.2hPa NW 2.0mph /  3.2km/h 5.0mph /  8km/h 46% 0.00in /  0mm
10:20 51.8 °F /  11 °C 32.7 °F /  0.4 °C 30.22in /  1023.2hPa Calm   5.0mph /  8km/h 48% 0.00in /  0mm
10:25 52.2 °F /  11.2 °C 33.1 °F /  0.6 °C 30.22in /  1023.2hPa Calm   5.0mph /  8km/h 48% 0.00in /  0mm
10:30 52.2 °F /  11.2 °C 32.0 °F /  0 °C 30.22in /  1023.2hPa East 1.0mph /  1.6km/h 3.0mph /  4.8km/h 46% 0.00in /  0mm
10:35 52.2 °F /  11.2 °C 32.6 °F /  0.3 °C 30.22in /  1023.2hPa Calm   3.0mph /  4.8km/h 47% 0.00in /  0mm
10:40 52.8 °F /  11.6 °C 32.6 °F /  0.3 °C 30.22in /  1023.2hPa Calm   4.0mph /  6.4km/h 46% 0.00in /  0mm
10:45 52.9 °F /  11.6 °C 32.1 °F /  0.1 °C 30.22in /  1023.2hPa Calm   4.0mph /  6.4km/h 45% 0.00in /  0mm
10:50 52.6 °F /  11.4 °C 32.4 °F /  0.2 °C 30.22in /  1023.2hPa Calm   2.0mph /  3.2km/h 46% 0.00in /  0mm
10:55 52.7 °F /  11.5 °C 32.5 °F /  0.3 °C 30.21in /  1022.9hPa East 2.0mph /  3.2km/h 5.0mph /  8km/h 46% 0.00in /  0mm
11:00 52.4 °F /  11.3 °C 32.2 °F /  0.1 °C 30.21in /  1022.9hPa Calm   5.0mph /  8km/h 46% 0.00in /  0mm
11:05 52.3 °F /  11.3 °C 32.1 °F /  0.1 °C 30.21in /  1022.9hPa ESE 3.0mph /  4.8km/h 7.0mph /  11.3km/h 46% 0.00in /  0mm
11:10 52.3 °F /  11.3 °C 32.7 °F /  0.4 °C 30.21in /  1022.9hPa Calm   7.0mph /  11.3km/h 47% 0.00in /  0mm
11:15 52.9 °F /  11.6 °C 33.2 °F /  0.7 °C 30.21in /  1022.9hPa Calm   5.0mph /  8km/h 47% 0.00in /  0mm
11:20 53.9 °F /  12.2 °C 33.6 °F /  0.9 °C 30.21in /  1022.9hPa Calm   5.0mph /  8km/h 46% 0.00in /  0mm
11:25 54.2 °F /  12.3 °C 33.9 °F /  1.1 °C 30.21in /  1022.9hPa Calm   4.0mph /  6.4km/h 46% 0.00in /  0mm
11:35 55.0 °F /  12.8 °C 32.9 °F /  0.5 °C 30.20in /  1022.6hPa Calm   3.0mph /  4.8km/h 43% 0.00in /  0mm
11:40 55.4 °F /  13 °C 34.4 °F /  1.3 °C 30.20in /  1022.6hPa Calm   2.0mph /  3.2km/h 45% 0.00in /  0mm
11:50 55.3 °F /  12.9 °C 33.2 °F /  0.7 °C 30.20in /  1022.6hPa Calm   6.0mph /  9.7km/h 43% 0.00in /  0mm
11:55 55.4 °F /  13 °C 33.3 °F /  0.7 °C 30.20in /  1022.6hPa SW 1.0mph /  1.6km/h 5.0mph /  8km/h 43% 0.00in /  0mm
12:00 55.7 °F /  13.2 °C 34.1 °F /  1.2 °C 30.20in /  1022.6hPa Calm   5.0mph /  8km/h 44% 0.00in /  0mm
12:05 55.8 °F /  13.2 °C 33.6 °F /  0.9 °C 30.20in /  1022.6hPa West 2.0mph /  3.2km/h 6.0mph /  9.7km/h 43% 0.00in /  0mm
12:10 55.8 °F /  13.2 °C 33.6 °F /  0.9 °C 30.20in /  1022.6hPa Calm   6.0mph /  9.7km/h 43% 0.00in /  0mm
12:15 56.0 °F /  13.3 °C 34.4 °F /  1.3 °C 30.19in /  1022.2hPa North 1.0mph /  1.6km/h 3.0mph /  4.8km/h 44% 0.00in /  0mm
12:20 56.0 °F /  13.3 °C 33.2 °F /  0.7 °C 30.19in /  1022.2hPa Calm   3.0mph /  4.8km/h 42% 0.00in /  0mm
12:25 56.3 °F /  13.5 °C 34.1 °F /  1.2 °C 30.19in /  1022.2hPa Calm   1.0mph /  1.6km/h 43% 0.00in /  0mm
12:30 56.7 °F /  13.7 °C 35.0 °F /  1.7 °C 30.19in /  1022.2hPa Calm   4.0mph /  6.4km/h 44% 0.00in /  0mm
12:40 56.2 °F /  13.4 °C 33.4 °F /  0.8 °C 30.19in /  1022.2hPa Calm   5.0mph /  8km/h 42% 0.00in /  0mm
12:45 56.6 °F /  13.7 °C 33.8 °F /  1 °C 30.19in /  1022.2hPa Calm   4.0mph /  6.4km/h 42% 0.00in /  0mm
12:50 56.9 °F /  13.8 °C 35.2 °F /  1.8 °C 30.19in /  1022.2hPa Calm   4.0mph /  6.4km/h 44% 0.00in /  0mm
13:00 58.2 °F /  14.6 °C 34.0 °F /  1.1 °C 30.19in /  1022.2hPa NW 1.0mph /  1.6km/h 6.0mph /  9.7km/h 40% 0.00in /  0mm
13:05 58.9 °F /  14.9 °C 34.6 °F /  1.4 °C 30.18in /  1021.9hPa NW 1.0mph /  1.6km/h 5.0mph /  8km/h 40% 0.00in /  0mm
13:10 59.0 °F /  15 °C 34.1 °F /  1.2 °C 30.18in /  1021.9hPa North 1.0mph /  1.6km/h 5.0mph /  8km/h 39% 0.00in /  0mm
13:15 59.0 °F /  15 °C 34.7 °F /  1.5 °C 30.18in /  1021.9hPa Calm   5.0mph /  8km/h 40% 0.00in /  0mm
13:20 59.0 °F /  15 °C 34.1 °F /  1.2 °C 30.18in /  1021.9hPa WNW 2.0mph /  3.2km/h 5.0mph /  8km/h 39% 0.00in /  0mm
13:30 58.9 °F /  14.9 °C 35.3 °F /  1.8 °C 30.17in /  1021.6hPa Calm   6.0mph /  9.7km/h 41% 0.00in /  0mm
13:40 59.3 °F /  15.2 °C 34.4 °F /  1.3 °C 30.17in /  1021.6hPa NNW 2.0mph /  3.2km/h 9.0mph /  14.5km/h 39% 0.00in /  0mm
13:45 59.3 °F /  15.2 °C 35.0 °F /  1.7 °C 30.17in /  1021.6hPa Calm   9.0mph /  14.5km/h 40% 0.00in /  0mm
13:50 59.3 °F /  15.2 °C 33.7 °F /  0.9 °C 30.17in /  1021.6hPa NW 3.0mph /  4.8km/h 7.0mph /  11.3km/h 38% 0.00in /  0mm
13:55 59.6 °F /  15.3 °C 34.0 °F /  1.1 °C 30.17in /  1021.6hPa Calm   7.0mph /  11.3km/h 38% 0.00in /  0mm
14:00 60.1 °F /  15.6 °C 35.1 °F /  1.7 °C 30.16in /  1021.2hPa Calm   2.0mph /  3.2km/h 39% 0.00in /  0mm
14:10 60.8 °F /  16 °C 35.0 °F /  1.7 °C 30.15in /  1020.9hPa Calm   4.0mph /  6.4km/h 38% 0.00in /  0mm
14:20 61.1 °F /  16.2 °C 35.3 °F /  1.8 °C 30.16in /  1021.2hPa WSW 1.0mph /  1.6km/h 6.0mph /  9.7km/h 38% 0.00in /  0mm
14:30 61.1 °F /  16.2 °C 36.0 °F /  2.2 °C 30.15in /  1020.9hPa WNW 4.0mph /  6.4km/h 8.0mph /  12.9km/h 39% 0.00in /  0mm
14:35 60.7 °F /  15.9 °C 35.0 °F /  1.7 °C 30.15in /  1020.9hPa Calm   8.0mph /  12.9km/h 38% 0.00in /  0mm
14:40 60.0 °F /  15.6 °C 34.3 °F /  1.3 °C 30.15in /  1020.9hPa Calm   5.0mph /  8km/h 38% 0.00in /  0mm
14:50 60.0 °F /  15.6 °C 34.3 °F /  1.3 °C 30.14in /  1020.5hPa Calm   3.0mph /  4.8km/h 38% 0.00in /  0mm
14:55 59.9 °F /  15.5 °C 34.9 °F /  1.6 °C 30.14in /  1020.5hPa Calm   1.0mph /  1.6km/h 39% 0.00in /  0mm
15:00 60.0 °F /  15.6 °C 35.0 °F /  1.7 °C 30.13in /  1020.2hPa Calm   3.0mph /  4.8km/h 39% 0.00in /  0mm
15:05 59.8 °F /  15.4 °C 34.2 °F /  1.2 °C 30.14in /  1020.5hPa Calm   3.0mph /  4.8km/h 38% 0.00in /  0mm
15:10 59.8 °F /  15.4 °C 34.2 °F /  1.2 °C 30.13in /  1020.2hPa Calm   1.0mph /  1.6km/h 38% 0.00in /  0mm
15:15 60.0 °F /  15.6 °C 35.0 °F /  1.7 °C 30.13in /  1020.2hPa Calm   1.0mph /  1.6km/h 39% 0.00in /  0mm
15:20 60.0 °F /  15.6 °C 33.7 °F /  0.9 °C 30.13in /  1020.2hPa Calm   1.0mph /  1.6km/h 37% 0.00in /  0mm
15:30 60.7 °F /  15.9 °C 34.3 °F /  1.3 °C 30.12in /  1019.9hPa Calm   1.0mph /  1.6km/h 37% 0.00in /  0mm
15:40 61.1 °F /  16.2 °C 34.0 °F /  1.1 °C 30.12in /  1019.9hPa Calm   5.0mph /  8km/h 36% 0.00in /  0mm
15:45 60.9 °F /  16.1 °C 35.1 °F /  1.7 °C 30.11in /  1019.5hPa South 1.0mph /  1.6km/h 5.0mph /  8km/h 38% 0.00in /  0mm
15:50 60.4 °F /  15.8 °C 34.7 °F /  1.5 °C 30.12in /  1019.9hPa Calm   5.0mph /  8km/h 38% 0.00in /  0mm
16:00 60.2 °F /  15.7 °C 35.2 °F /  1.8 °C 30.11in /  1019.5hPa SSW 2.0mph /  3.2km/h 5.0mph /  8km/h 39% 0.00in /  0mm
16:10 59.9 °F /  15.5 °C 35.5 °F /  1.9 °C 30.11in /  1019.5hPa Calm   3.0mph /  4.8km/h 40% 0.00in /  0mm
16:15 60.0 °F /  15.6 °C 35.0 °F /  1.7 °C 30.11in /  1019.5hPa Calm   1.0mph /  1.6km/h 39% 0.00in /  0mm
16:20 60.0 °F /  15.6 °C 34.3 °F /  1.3 °C 30.11in /  1019.5hPa Calm   3.0mph /  4.8km/h 38% 0.00in /  0mm
16:25 59.6 °F /  15.3 °C 34.6 °F /  1.4 °C 30.11in /  1019.5hPa SSW 1.0mph /  1.6km/h 6.0mph /  9.7km/h 39% 0.00in /  0mm
16:35 59.5 °F /  15.3 °C 35.2 °F /  1.8 °C 30.10in /  1019.2hPa Calm   6.0mph /  9.7km/h 40% 0.00in /  0mm
16:40 59.4 °F /  15.2 °C 35.7 °F /  2.1 °C 30.10in /  1019.2hPa Calm   6.0mph /  9.7km/h 41% 0.00in /  0mm
16:45 59.4 °F /  15.2 °C 35.1 °F /  1.7 °C 30.10in /  1019.2hPa Calm   6.0mph /  9.7km/h 40% 0.00in /  0mm
16:55 59.3 °F /  15.2 °C 35.0 °F /  1.7 °C 30.09in /  1018.8hPa Calm   3.0mph /  4.8km/h 40% 0.00in /  0mm
17:00 59.3 °F /  15.2 °C 35.6 °F /  2 °C 30.09in /  1018.8hPa Calm   1.0mph /  1.6km/h 41% 0.01in /  0.3mm
17:10 59.0 °F /  15 °C 35.3 °F /  1.8 °C 30.09in /  1018.8hPa Calm   1.0mph /  1.6km/h 41% 0.01in /  0.3mm
17:15 59.0 °F /  15 °C 35.3 °F /  1.8 °C 30.09in /  1018.8hPa Calm   1.0mph /  1.6km/h 41% 0.01in /  0.3mm
17:20 59.0 °F /  15 °C 37.1 °F /  2.8 °C 30.09in /  1018.8hPa Calm   1.0mph /  1.6km/h 44% 0.01in /  0.3mm
17:25 58.2 °F /  14.6 °C 37.0 °F /  2.8 °C 30.09in /  1018.8hPa Calm   1.0mph /  1.6km/h 45% 0.01in /  0.3mm
17:35 57.0 °F /  13.9 °C 39.1 °F /  3.9 °C 30.08in /  1018.5hPa Calm     51% 0.01in /  0.3mm
17:40 56.0 °F /  13.3 °C 38.1 °F /  3.4 °C 30.08in /  1018.5hPa Calm     51% 0.01in /  0.3mm
17:45 55.3 °F /  12.9 °C 37.0 °F /  2.8 °C 30.08in /  1018.5hPa Calm     50% 0.01in /  0.3mm
17:50 55.0 °F /  12.8 °C 38.2 °F /  3.4 °C 30.08in /  1018.5hPa Calm   1.0mph /  1.6km/h 53% 0.01in /  0.3mm
17:55 54.3 °F /  12.4 °C 37.5 °F /  3.1 °C 30.08in /  1018.5hPa Calm   1.0mph /  1.6km/h 53% 0.01in /  0.3mm
18:00 53.6 °F /  12 °C 36.9 °F /  2.7 °C 30.08in /  1018.5hPa Calm     53% 0.01in /  0.3mm
18:05 52.8 °F /  11.6 °C 37.5 °F /  3.1 °C 30.08in /  1018.5hPa Calm     56% 0.01in /  0.3mm
18:10 52.0 °F /  11.1 °C 37.7 °F /  3.2 °C 30.08in /  1018.5hPa Calm   1.0mph /  1.6km/h 58% 0.01in /  0.3mm
18:20 51.1 °F /  10.6 °C 36.0 °F /  2.2 °C 30.07in /  1018.2hPa Calm     56% 0.01in /  0.3mm
18:25 50.9 °F /  10.5 °C 36.7 °F /  2.6 °C 30.07in /  1018.2hPa Calm   1.0mph /  1.6km/h 58% 0.01in /  0.3mm
18:30 50.5 °F /  10.3 °C 35.8 °F /  2.1 °C 30.07in /  1018.2hPa Calm   1.0mph /  1.6km/h 57% 0.01in /  0.3mm
18:35 50.4 °F /  10.2 °C 35.7 °F /  2.1 °C 30.07in /  1018.2hPa Calm   1.0mph /  1.6km/h 57% 0.01in /  0.3mm
18:40 50.1 °F /  10.1 °C 35.9 °F /  2.2 °C 30.07in /  1018.2hPa Calm   1.0mph /  1.6km/h 58% 0.01in /  0.3mm
18:45 50.3 °F /  10.2 °C 35.7 °F /  2.1 °C 30.07in /  1018.2hPa Calm     57% 0.01in /  0.3mm
18:50 50.3 °F /  10.2 °C 35.7 °F /  2.1 °C 30.07in /  1018.2hPa Calm     57% 0.01in /  0.3mm
18:55 50.0 °F /  10 °C 35.4 °F /  1.9 °C 30.07in /  1018.2hPa Calm     57% 0.01in /  0.3mm
19:00 49.8 °F /  9.9 °C 35.6 °F /  2 °C 30.07in /  1018.2hPa Calm     58% 0.01in /  0.3mm
19:05 49.9 °F /  9.9 °C 35.3 °F /  1.8 °C 30.07in /  1018.2hPa Calm   1.0mph /  1.6km/h 57% 0.01in /  0.3mm
19:10 50.3 °F /  10.2 °C 35.7 °F /  2.1 °C 30.07in /  1018.2hPa Calm   1.0mph /  1.6km/h 57% 0.01in /  0.3mm
19:15 49.9 °F /  9.9 °C 35.7 °F /  2.1 °C 30.07in /  1018.2hPa Calm     58% 0.01in /  0.3mm
19:20 49.9 °F /  9.9 °C 35.7 °F /  2.1 °C 30.07in /  1018.2hPa Calm     58% 0.01in /  0.3mm
19:25 49.9 °F /  9.9 °C 35.3 °F /  1.8 °C 30.07in /  1018.2hPa Calm     57% 0.01in /  0.3mm
19:35 50.0 °F /  10 °C 35.4 °F /  1.9 °C 30.06in /  1017.8hPa Calm     57% 0.01in /  0.3mm
19:40 49.8 °F /  9.9 °C 35.6 °F /  2 °C 30.06in /  1017.8hPa Calm     58% 0.01in /  0.3mm
19:45 49.7 °F /  9.8 °C 35.1 °F /  1.7 °C 30.06in /  1017.8hPa Calm     57% 0.01in /  0.3mm
19:50 49.9 °F /  9.9 °C 35.3 °F /  1.8 °C 30.06in /  1017.8hPa Calm     57% 0.01in /  0.3mm
19:55 49.7 °F /  9.8 °C 35.5 °F /  1.9 °C 30.06in /  1017.8hPa Calm     58% 0.01in /  0.3mm
20:00 49.4 °F /  9.7 °C 35.2 °F /  1.8 °C 30.06in /  1017.8hPa Calm     58% 0.01in /  0.3mm
20:10 49.1 °F /  9.5 °C 35.4 °F /  1.9 °C 30.06in /  1017.8hPa Calm     59% 0.01in /  0.3mm
20:15 49.3 °F /  9.6 °C 35.6 °F /  2 °C 30.06in /  1017.8hPa Calm     59% 0.01in /  0.3mm
20:20 48.9 °F /  9.4 °C 36.0 °F /  2.2 °C 30.06in /  1017.8hPa Calm     61% 0.01in /  0.3mm
20:30 48.4 °F /  9.1 °C 35.6 °F /  2 °C 30.05in /  1017.5hPa Calm     61% 0.01in /  0.3mm
20:35 48.0 °F /  8.9 °C 36.0 °F /  2.2 °C 30.05in /  1017.5hPa Calm     63% 0.01in /  0.3mm
20:45 47.6 °F /  8.7 °C 34.8 °F /  1.6 °C 30.05in /  1017.5hPa Calm     61% 0.01in /  0.3mm
20:50 47.8 °F /  8.8 °C 35.4 °F /  1.9 °C 30.05in /  1017.5hPa Calm     62% 0.01in /  0.3mm
20:55 47.9 °F /  8.8 °C 35.1 °F /  1.7 °C 30.04in /  1017.2hPa Calm     61% 0.01in /  0.3mm
21:05 47.9 °F /  8.8 °C 35.9 °F /  2.2 °C 30.04in /  1017.2hPa Calm     63% 0.01in /  0.3mm
21:10 47.7 °F /  8.7 °C 35.7 °F /  2.1 °C 30.03in /  1016.8hPa Calm     63% 0.01in /  0.3mm
21:15 47.5 °F /  8.6 °C 35.5 °F /  1.9 °C 30.03in /  1016.8hPa Calm     63% 0.01in /  0.3mm
21:20 47.6 °F /  8.7 °C 36.0 °F /  2.2 °C 30.03in /  1016.8hPa Calm     64% 0.01in /  0.3mm
21:25 47.6 °F /  8.7 °C 36.0 °F /  2.2 °C 30.03in /  1016.8hPa Calm     64% 0.01in /  0.3mm
21:30 47.4 °F /  8.6 °C 35.8 °F /  2.1 °C 30.03in /  1016.8hPa Calm     64% 0.01in /  0.3mm
21:35 47.1 °F /  8.4 °C 35.2 °F /  1.8 °C 30.03in /  1016.8hPa Calm     63% 0.01in /  0.3mm
21:45 47.1 °F /  8.4 °C 35.2 °F /  1.8 °C 30.03in /  1016.8hPa Calm     63% 0.01in /  0.3mm
21:55 47.3 °F /  8.5 °C 34.9 °F /  1.6 °C 30.04in /  1017.2hPa Calm     62% 0.01in /  0.3mm
22:00 47.6 °F /  8.7 °C 35.2 °F /  1.8 °C 30.03in /  1016.8hPa Calm     62% 0.01in /  0.3mm
22:05 47.7 °F /  8.7 °C 35.3 °F /  1.8 °C 30.03in /  1016.8hPa Calm   1.0mph /  1.6km/h 62% 0.01in /  0.3mm
22:10 47.9 °F /  8.8 °C 35.5 °F /  1.9 °C 30.02in /  1016.5hPa Calm   1.0mph /  1.6km/h 62% 0.01in /  0.3mm
22:15 47.9 °F /  8.8 °C 35.5 °F /  1.9 °C 30.03in /  1016.8hPa Calm   2.0mph /  3.2km/h 62% 0.01in /  0.3mm
22:20 47.6 °F /  8.7 °C 34.4 °F /  1.3 °C 30.03in /  1016.8hPa Calm   2.0mph /  3.2km/h 60% 0.01in /  0.3mm
22:30 47.3 °F /  8.5 °C 34.9 °F /  1.6 °C 30.03in /  1016.8hPa Calm   2.0mph /  3.2km/h 62% 0.01in /  0.3mm
22:35 47.0 °F /  8.3 °C 35.1 °F /  1.7 °C 30.02in /  1016.5hPa Calm   2.0mph /  3.2km/h 63% 0.01in /  0.3mm
22:45 46.3 °F /  7.9 °C 34.0 °F /  1.1 °C 30.02in /  1016.5hPa Calm     62% 0.01in /  0.3mm
22:50 46.2 °F /  7.9 °C 34.3 °F /  1.3 °C 30.02in /  1016.5hPa Calm     63% 0.01in /  0.3mm
22:55 46.4 °F /  8 °C 34.1 °F /  1.2 °C 30.02in /  1016.5hPa Calm     62% 0.01in /  0.3mm
23:00 46.9 °F /  8.3 °C 34.6 °F /  1.4 °C 30.02in /  1016.5hPa Calm   3.0mph /  4.8km/h 62% 0.01in /  0.3mm
23:05 47.8 °F /  8.8 °C 34.2 °F /  1.2 °C 30.01in /  1016.1hPa SSW 2.0mph /  3.2km/h 4.0mph /  6.4km/h 59% 0.01in /  0.3mm
23:10 48.7 °F /  9.3 °C 33.7 °F /  0.9 °C 30.02in /  1016.5hPa SSW 2.0mph /  3.2km/h 6.0mph /  9.7km/h 56% 0.01in /  0.3mm
23:15 49.2 °F /  9.6 °C 33.7 °F /  0.9 °C 30.01in /  1016.1hPa SSW 2.0mph /  3.2km/h 6.0mph /  9.7km/h 55% 0.01in /  0.3mm
23:20 49.7 °F /  9.8 °C 33.7 °F /  0.9 °C 30.01in /  1016.1hPa SSW 3.0mph /  4.8km/h 5.0mph /  8km/h 54% 0.01in /  0.3mm
23:25 50.4 °F /  10.2 °C 33.9 °F /  1.1 °C 30.01in /  1016.1hPa SSW 1.0mph /  1.6km/h 5.0mph /  8km/h 53% 0.01in /  0.3mm
23:30 50.4 °F /  10.2 °C 33.9 °F /  1.1 °C 30.01in /  1016.1hPa SSW 1.0mph /  1.6km/h 5.0mph /  8km/h 53% 0.01in /  0.3mm
23:35 50.3 °F /  10.2 °C 33.8 °F /  1 °C 30.00in /  1015.8hPa Calm   3.0mph /  4.8km/h 53% 0.01in /  0.3mm
23:40 50.5 °F /  10.3 °C 33.5 °F /  0.8 °C 30.00in /  1015.8hPa SSW 3.0mph /  4.8km/h 4.0mph /  6.4km/h 52% 0.01in /  0.3mm
23:50 50.4 °F /  10.2 °C 34.8 °F /  1.6 °C 30.00in /  1015.8hPa Calm   2.0mph /  3.2km/h 55% 0.01in /  0.3mm
23:55 49.6 °F /  9.8 °C 35.0 °F /  1.7 °C 29.99in /  1015.5hPa Calm     57% 0.01in /  0.3mm
Westford Weather
Compliments of Weather Underground

 
 
Current Radar Loop:

Copyright © WestfordWeather.net 2007-2014. All rights reserved.